Time;durP1;ratioP1;P1;durP2;ratioP2;P2;SDS_P1;SDS_P2;PMS_P1;PMS_P2;Temp;Humidity;BMP_temperature;BMP_pressure;BME280_temperature;BME280_humidity;BME280_pressure;Samples;Min_cycle;Max_cycle;Signal;HPM_P1;HPM_P2
2022/11/04 00:01:33;;;;;;;1.05;0.35;;;;;;;16.08;64.59;99945.97;5089688;28;20028;-76
2022/11/04 00:03:59;;;;;;;3.03;0.40;;;;;;;15.72;65.07;99953.50;5083372;28;20415;-76
2022/11/04 00:06:25;;;;;;;0.75;0.55;;;;;;;15.89;64.76;99965.88;5086063;28;20071;-75
2022/11/04 00:08:54;;;;;;;1.65;0.45;;;;;;;15.46;65.71;99965.59;5083389;28;20508;-73
2022/11/04 00:14:08;;;;;;;4.95;0.80;;;;;;;15.59;66.59;99959.56;5085043;28;20559;-76
2022/11/04 00:19:18;;;;;;;4.95;1.60;;;;;;;15.98;66.18;99966.91;5083728;28;20052;-75
2022/11/04 00:30:08;;;;;;;1.77;0.98;;;;;;;15.46;70.40;99973.72;5084195;28;20043;-76
2022/11/04 00:35:18;;;;;;;4.40;1.20;;;;;;;15.96;69.21;99988.06;5094966;28;20066;-75
2022/11/04 00:37:44;;;;;;;1.80;0.93;;;;;;;15.75;69.91;99990.06;5094577;28;20024;-75
2022/11/04 00:40:13;;;;;;;6.05;1.83;;;;;;;15.91;69.45;100001.63;5083747;28;20508;-74
2022/11/04 00:42:38;;;;;;;1.98;1.00;;;;;;;15.81;70.66;100011.44;5074375;28;20043;-75
2022/11/04 00:45:04;;;;;;;6.68;1.58;;;;;;;15.46;71.09;100018.94;5074144;28;20124;-73
2022/11/04 00:47:30;;;;;;;8.32;1.30;;;;;;;15.97;70.38;100024.91;5073682;28;20020;-75
2022/11/04 00:49:55;;;;;;;4.82;2.15;;;;;;;15.90;69.76;100029.84;5080135;28;20081;-76
2022/11/04 00:52:21;;;;;;;5.45;2.10;;;;;;;15.74;70.04;100032.59;5094253;28;20108;-75
2022/11/04 00:54:46;;;;;;;3.30;1.40;;;;;;;15.87;71.00;100027.66;5094223;28;20036;-76
2022/11/04 00:57:13;;;;;;;5.80;2.60;;;;;;;16.36;69.12;100021.13;5094265;28;20054;-75
2022/11/04 00:59:39;;;;;;;5.25;2.20;;;;;;;16.15;69.50;100022.34;5094458;28;20111;-76
2022/11/04 01:02:06;;;;;;;3.28;2.05;;;;;;;15.84;71.01;100027.13;5086280;28;20119;-74
2022/11/04 01:04:31;;;;;;;5.20;2.72;;;;;;;16.39;68.92;100031.38;5073911;28;20053;-75
2022/11/04 01:06:57;;;;;;;4.95;2.10;;;;;;;16.26;69.53;100036.63;5074044;28;20424;-75
2022/11/04 01:09:22;;;;;;;7.45;2.00;;;;;;;16.17;69.88;100038.34;5073541;28;20059;-76
2022/11/04 01:11:48;;;;;;;4.72;2.30;;;;;;;15.75;71.32;100044.25;5073516;28;20036;-76
2022/11/04 01:14:13;;;;;;;8.35;2.58;;;;;;;16.07;69.87;100043.81;5074199;28;20021;-75
2022/11/04 01:16:39;;;;;;;4.82;2.55;;;;;;;16.09;69.78;100053.28;5073450;28;20573;-77
2022/11/04 01:19:05;;;;;;;7.13;2.40;;;;;;;16.07;69.95;100057.38;5073504;28;20047;-75
2022/11/04 01:21:30;;;;;;;6.05;1.73;;;;;;;15.73;71.56;100055.38;5073721;28;20036;-75
2022/11/04 01:23:55;;;;;;;7.88;2.30;;;;;;;16.15;69.79;100057.59;5073388;28;20403;-75
2022/11/04 01:26:24;;;;;;;6.75;2.28;;;;;;;16.36;68.44;100060.97;5073857;28;20036;-76
2022/11/04 01:28:51;;;;;;;6.97;2.50;;;;;;;16.05;69.93;100056.84;5073102;28;20500;-76
2022/11/04 01:31:22;;;;;;;8.07;2.65;;;;;;;16.46;68.63;100059.00;5071804;28;20075;-77
2022/11/04 01:33:49;;;;;;;7.18;2.92;;;;;;;16.09;69.93;100069.56;5073164;28;20047;-77
2022/11/04 01:36:15;;;;;;;7.88;2.72;;;;;;;16.47;68.67;100068.75;5073382;28;20033;-77
2022/11/04 01:38:41;;;;;;;7.90;3.10;;;;;;;15.87;71.04;100079.97;5073215;28;20036;-77
2022/11/04 01:41:08;;;;;;;8.60;2.83;;;;;;;16.15;70.22;100076.56;5092556;28;20042;-76
2022/11/04 01:43:50;;;;;;;5.85;3.58;;;;;;;16.20;70.11;100079.25;5093555;28;20047;-77
2022/11/04 01:46:37;;;;;;;9.48;3.05;;;;;;;15.98;70.76;100076.09;5092988;28;20082;-78
2022/11/04 01:49:28;;;;;;;4.78;2.50;;;;;;;16.56;69.29;100077.94;5072881;28;20124;-77
2022/11/04 01:52:07;;;;;;;7.93;2.60;;;;;;;16.53;68.58;100081.22;5073091;28;20064;-77
2022/11/04 01:54:34;;;;;;;6.63;2.75;;;;;;;16.15;70.16;100082.00;5072848;28;20032;-78
2022/11/04 01:57:02;;;;;;;7.90;2.58;;;;;;;15.90;71.09;100094.88;5076922;28;20036;-78
2022/11/04 01:59:33;;;;;;;4.35;2.42;;;;;;;16.07;70.36;100098.84;5077092;28;20048;-75
2022/11/04 02:01:59;;;;;;;11.82;2.58;;;;;;;15.99;70.96;100109.44;5072901;28;20036;-77
2022/11/04 02:04:25;;;;;;;9.27;2.15;;;;;;;16.14;69.54;100106.66;5072696;28;20400;-74
2022/11/04 02:07:04;;;;;;;7.30;2.00;;;;;;;15.69;71.70;100113.09;5072564;28;20033;-76
2022/11/04 02:09:33;;;;;;;5.30;2.03;;;;;;;16.72;68.95;100115.81;5072191;28;20060;-76
2022/11/04 02:14:45;;;;;;;5.47;1.40;;;;;;;15.74;71.00;100124.72;5072464;28;20105;-76
2022/11/04 02:17:19;;;;;;;3.58;1.23;;;;;;;15.57;72.16;100131.53;5072687;28;20032;-77
2022/11/04 02:19:56;;;;;;;3.08;1.25;;;;;;;15.78;71.32;100136.63;5072322;28;20508;-76
2022/11/04 02:22:52;;;;;;;3.22;1.42;;;;;;;15.39;72.52;100159.19;5071961;28;20500;-76
2022/11/04 02:25:53;;;;;;;5.10;1.20;;;;;;;14.70;75.12;100156.22;5072495;28;20075;-77
2022/11/04 02:28:37;;;;;;;0.73;0.65;;;;;;;14.40;76.86;100148.84;5072588;28;20032;-79
2022/11/04 02:31:18;;;;;;;1.92;0.65;;;;;;;15.29;72.14;100156.50;5072697;28;20041;-79
2022/11/04 02:33:43;;;;;;;;;;;;;;;15.00;73.40;100155.44;5073380;28;20102;-78
2022/11/04 02:36:19;;;;;;;1.08;0.80;;;;;;;15.13;72.43;100155.69;5072564;28;19920;-78
2022/11/04 02:38:59;;;;;;;2.35;0.70;;;;;;;16.00;69.59;100155.22;5072434;28;20028;-78
2022/11/04 02:41:44;;;;;;;1.42;0.43;;;;;;;15.24;70.89;100167.31;5072825;28;20033;-78
2022/11/04 02:44:29;;;;;;;1.27;0.43;;;;;;;15.59;70.03;100167.28;5088430;28;20445;-79
2022/11/04 02:47:03;;;;;;;1.08;0.50;;;;;;;15.68;70.16;100179.97;5092316;28;20105;-77
2022/11/04 02:49:39;;;;;;;0.75;0.40;;;;;;;15.60;70.00;100182.47;5089958;28;20044;-80
2022/11/04 02:52:08;;;;;;;2.97;0.80;;;;;;;15.97;68.72;100182.09;5072197;28;20111;-78
2022/11/04 02:54:48;;;;;;;1.80;1.10;;;;;;;15.74;70.10;100192.44;5072052;28;20508;-77
2022/11/04 02:57:19;;;;;;;1.25;0.55;;;;;;;15.34;71.01;100188.94;5076608;28;20039;-72
2022/11/04 02:59:49;;;;;;;3.70;1.05;;;;;;;15.37;71.46;100197.34;5091767;28;20040;-71
2022/11/04 03:02:22;;;;;;;3.30;0.98;;;;;;;16.11;68.81;100199.38;5092157;28;20027;-72
2022/11/04 03:04:51;;;;;;;5.03;1.02;;;;;;;15.90;70.18;100201.34;5091681;28;20518;-71
2022/11/04 03:07:23;;;;;;;6.18;1.40;;;;;;;15.56;71.18;100206.56;5091642;28;20118;-72
2022/11/04 03:09:54;;;;;;;2.95;1.50;;;;;;;15.11;72.80;100208.44;5091484;28;20052;-72
2022/11/04 03:12:25;;;;;;;11.52;1.98;;;;;;;15.23;72.67;100204.41;5091380;28;20036;-72
2022/11/04 03:14:56;;;;;;;3.30;1.30;;;;;;;15.46;70.76;100213.88;5091510;28;20032;-70
2022/11/04 03:17:31;;;;;;;2.72;1.00;;;;;;;15.17;72.25;100202.78;5091733;28;20023;-72
2022/11/04 03:19:58;;;;;;;2.83;0.90;;;;;;;14.97;72.78;100208.19;5091544;28;20074;-72
2022/11/04 03:22:29;;;;;;;2.67;1.17;;;;;;;15.34;70.97;100216.03;5091552;28;20082;-72
2022/11/04 03:24:55;;;;;;;;;;;;;;;15.17;71.58;100224.44;5091919;28;20123;-72
2022/11/04 03:27:53;;;;;;;5.53;0.90;;;;;;;15.48;70.01;100219.84;5090035;28;20057;-73
2022/11/04 03:30:22;;;;;;;1.50;0.68;;;;;;;15.15;72.12;100234.72;5091487;28;20032;-73
2022/11/04 03:32:56;;;;;;;4.88;0.90;;;;;;;14.90;72.87;100238.19;5091542;28;21208;-71
2022/11/04 03:35:22;;;;;;;5.78;1.35;;;;;;;15.46;70.57;100235.56;5094092;28;20599;-71
2022/11/04 03:37:48;;;;;;;2.25;0.60;;;;;;;15.23;70.92;100250.44;5095420;28;20107;-73
2022/11/04 03:40:15;;;;;;;1.20;0.60;;;;;;;15.29;70.72;100252.03;5085690;28;20040;-72
2022/11/04 03:42:47;;;;;;;0.90;0.60;;;;;;;15.13;70.13;100253.13;5075316;28;20047;-73
2022/11/04 03:45:13;;;;;;;3.22;0.88;;;;;;;15.33;69.20;100265.84;5075051;28;20168;-72
2022/11/04 03:47:38;;;;;;;1.02;0.68;;;;;;;14.63;71.09;100280.84;5074751;28;20032;-74
2022/11/04 03:50:18;;;;;;;2.58;0.75;;;;;;;15.05;70.23;100278.00;5082208;28;20032;-72
2022/11/04 03:52:44;;;;;;;4.80;0.77;;;;;;;14.81;70.45;100283.09;5095568;28;20040;-73
2022/11/04 03:55:11;;;;;;;6.00;0.98;;;;;;;15.04;69.57;100286.38;5095196;28;20518;-71
2022/11/04 03:58:01;;;;;;;2.25;0.90;;;;;;;15.13;69.61;100291.00;5094111;28;20039;-71
2022/11/04 04:00:32;;;;;;;2.07;0.87;;;;;;;15.70;67.27;100291.59;5080237;28;20044;-72
2022/11/04 04:03:12;;;;;;;;;;;;;;;15.57;67.96;100291.31;5095380;28;20028;-72
2022/11/04 04:05:50;;;;;;;1.93;0.97;;;;;;;15.11;69.26;100287.75;5094979;28;20011;-71
2022/11/04 04:08:37;;;;;;;3.20;0.88;;;;;;;15.63;67.68;100296.47;5095213;28;20594;-73
2022/11/04 04:11:20;;;;;;;3.95;0.77;;;;;;;15.04;69.67;100311.53;5094604;28;20056;-73
2022/11/04 04:13:55;;;;;;;1.20;0.98;;;;;;;15.08;69.31;100307.22;5094763;28;20044;-72
2022/11/04 04:16:29;;;;;;;2.17;0.73;;;;;;;14.76;70.01;100306.59;5094540;28;20051;-71
2022/11/04 04:19:18;;;;;;;3.47;0.77;;;;;;;14.90;69.96;100295.00;5094463;28;20031;-73
2022/11/04 04:21:59;;;;;;;0.50;0.50;;;;;;;15.36;68.22;100301.31;5088375;28;20029;-74
2022/11/04 04:27:30;;;;;;;4.70;0.63;;;;;;;15.33;67.69;100293.72;5074046;28;20054;-73
2022/11/04 04:29:57;;;;;;;4.65;1.25;;;;;;;15.22;68.76;100291.28;5073492;28;20032;-72
2022/11/04 04:32:27;;;;;;;0.60;0.45;;;;;;;15.02;68.52;100302.09;5055194;28;20032;-71
2022/11/04 04:35:40;;;;;;;1.77;0.50;;;;;;;15.11;68.30;100303.19;5075060;28;20665;-72
2022/11/04 04:37:44;;;;;;;3.60;0.80;;;;;;;15.17;68.18;100296.69;5093303;28;20111;-71
2022/11/04 04:44:58;;;;;;;3.05;0.90;;;;;;;15.34;67.42;100303.47;5093405;28;20066;-71
2022/11/04 04:45:51;;;;;;;3.30;0.60;;;;;;;14.98;68.01;100322.63;5092891;28;20124;-72
2022/11/04 04:48:16;;;;;;;2.83;1.05;;;;;;;15.05;66.91;100320.47;5093079;28;20375;-74
2022/11/04 04:50:48;;;;;;;3.00;0.75;;;;;;;14.82;66.73;100319.88;5080981;28;20058;-72
2022/11/04 04:53:14;;;;;;;5.28;0.73;;;;;;;15.13;66.32;100325.38;5074362;28;20483;-72
2022/11/04 04:55:39;;;;;;;0.50;0.30;;;;;;;14.88;66.69;100328.81;5073886;28;20056;-73
2022/11/04 04:58:05;;;;;;;0.50;0.50;;;;;;;14.13;68.35;100339.22;5086721;28;20066;-72
2022/11/04 05:00:31;;;;;;;0.43;0.43;;;;;;;14.42;68.17;100344.03;5093912;28;20039;-73
2022/11/04 05:02:56;;;;;;;2.05;0.50;;;;;;;14.61;65.95;100337.09;5091689;28;20040;-73
2022/11/04 05:05:22;;;;;;;0.55;0.38;;;;;;;14.46;67.68;100337.03;5093572;28;20514;-73
2022/11/04 05:07:48;;;;;;;1.45;0.88;;;;;;;14.64;67.36;100341.97;5091659;28;20115;-74
2022/11/04 05:10:15;;;;;;;3.90;0.90;;;;;;;14.30;69.65;100345.31;5092090;28;20495;-72
2022/11/04 05:15:26;;;;;;;2.60;1.50;;;;;;;15.10;67.48;100353.78;5093832;28;20067;-73
2022/11/04 05:18:02;;;;;;;6.03;2.00;;;;;;;14.88;67.98;100347.75;5093324;28;20041;-74
2022/11/04 05:20:29;;;;;;;2.40;2.17;;;;;;;14.28;70.79;100352.88;5093932;28;20115;-72
2022/11/04 05:22:54;;;;;;;9.77;3.08;;;;;;;14.62;69.67;100354.94;5093410;28;20047;-72
2022/11/04 05:25:20;;;;;;;7.78;3.60;;;;;;;14.32;70.71;100359.38;5093334;28;20035;-73
2022/11/04 05:27:45;;;;;;;6.93;3.90;;;;;;;13.91;71.98;100367.19;5093396;28;20496;-74
2022/11/04 05:30:11;;;;;;;9.25;3.67;;;;;;;14.56;70.07;100376.81;5093361;28;20040;-72
2022/11/04 05:32:36;;;;;;;10.50;4.65;;;;;;;14.93;68.33;100383.78;5093175;28;20036;-73
2022/11/04 05:35:02;;;;;;;8.07;5.45;;;;;;;14.64;69.02;100374.41;5093557;28;20028;-72
2022/11/04 05:37:27;;;;;;;7.15;4.93;;;;;;;14.82;68.29;100379.38;5092927;28;20376;-73
2022/11/04 05:39:53;;;;;;;8.70;6.07;;;;;;;15.41;66.21;100384.47;5083513;28;20040;-72
2022/11/04 05:42:18;;;;;;;13.88;7.05;;;;;;;15.00;67.08;100382.72;5090553;28;20122;-73
2022/11/04 05:44:43;;;;;;;17.17;8.10;;;;;;;14.78;68.38;100385.59;5092822;28;20540;-73
2022/11/04 05:47:09;;;;;;;13.07;8.45;;;;;;;14.22;70.68;100389.81;5093055;28;20063;-74
2022/11/04 05:49:34;;;;;;;15.00;8.13;;;;;;;14.93;67.69;100391.06;5092579;28;20067;-73
2022/11/04 05:51:59;;;;;;;19.40;8.93;;;;;;;14.47;69.32;100394.59;5089281;28;20532;-73
2022/11/04 05:54:25;;;;;;;16.70;8.30;;;;;;;14.57;68.94;100400.91;5078617;28;20452;-73
2022/11/04 05:56:51;;;;;;;15.85;9.65;;;;;;;14.89;67.30;100404.31;5080722;28;20518;-73
2022/11/04 05:59:16;;;;;;;21.35;10.50;;;;;;;14.16;70.13;100404.38;5080897;28;20021;-76
2022/11/04 06:01:42;;;;;;;21.02;10.60;;;;;;;14.48;68.96;100407.06;5080418;28;20739;-72
2022/11/04 06:04:13;;;;;;;20.27;10.45;;;;;;;14.19;69.88;100411.94;5080372;28;20040;-71
2022/11/04 06:06:38;;;;;;;22.38;11.80;;;;;;;14.78;68.82;100421.56;5080959;28;20130;-73
2022/11/04 06:09:04;;;;;;;23.08;11.40;;;;;;;14.74;68.48;100431.28;5076978;28;20032;-73
2022/11/04 06:11:30;;;;;;;32.22;11.48;;;;;;;14.79;68.72;100425.91;5079199;28;20075;-72
2022/11/04 06:13:56;;;;;;;20.45;11.38;;;;;;;14.49;69.88;100433.00;5092876;28;20068;-72
2022/11/04 06:16:22;;;;;;;23.80;12.38;;;;;;;15.43;66.02;100431.06;5092429;28;20122;-72
2022/11/04 06:18:48;;;;;;;20.98;12.32;;;;;;;15.04;66.58;100435.19;5092345;28;20131;-73
2022/11/04 06:21:13;;;;;;;24.60;12.85;;;;;;;14.83;67.40;100437.81;5092197;28;20111;-73
2022/11/04 06:23:40;;;;;;;24.30;13.23;;;;;;;14.59;68.61;100442.00;5092327;28;20508;-72
2022/11/04 06:26:05;;;;;;;23.85;13.43;;;;;;;14.64;68.95;100454.75;5092644;28;20040;-73
2022/11/04 06:28:31;;;;;;;26.15;12.85;;;;;;;14.67;68.29;100455.03;5092155;28;20042;-73
2022/11/04 06:30:58;;;;;;;25.40;14.88;;;;;;;14.78;68.64;100455.94;5092207;28;20119;-74
2022/11/04 06:33:24;;;;;;;27.80;14.18;;;;;;;14.75;67.85;100462.66;5090559;28;20036;-73
2022/11/04 06:35:49;;;;;;;31.67;16.58;;;;;;;14.61;68.10;100449.84;5092144;28;20032;-73
2022/11/04 06:38:14;;;;;;;26.30;15.80;;;;;;;14.34;67.75;100455.38;5092376;28;20053;-73
2022/11/04 06:40:40;;;;;;;39.70;17.90;;;;;;;14.78;67.45;100454.00;5092034;28;20059;-73
2022/11/04 06:43:05;;;;;;;33.03;18.58;;;;;;;14.60;67.65;100459.06;5091852;28;20090;-72
2022/11/04 06:45:30;;;;;;;34.13;18.95;;;;;;;14.93;66.66;100459.53;5092024;28;20137;-72
2022/11/04 06:47:56;;;;;;;37.65;20.38;;;;;;;15.25;65.25;100469.41;5091937;28;20052;-72
2022/11/04 06:50:21;;;;;;;47.25;22.92;;;;;;;15.08;66.22;100471.47;5083029;28;20052;-73
2022/11/04 06:52:47;;;;;;;42.67;21.65;;;;;;;15.10;65.76;100474.75;5074237;28;20028;-73
2022/11/04 06:55:12;;;;;;;53.00;26.17;;;;;;;14.67;67.78;100484.78;5080314;28;20496;-73
2022/11/04 06:57:37;;;;;;;52.30;26.20;;;;;;;14.71;67.57;100480.50;5079609;28;20496;-73
2022/11/04 07:00:03;;;;;;;50.20;26.33;;;;;;;14.57;68.22;100479.31;5081846;28;20115;-73
2022/11/04 07:02:28;;;;;;;56.28;29.90;;;;;;;14.77;67.06;100484.03;5080273;28;20460;-72
2022/11/04 07:04:54;;;;;;;58.88;27.55;;;;;;;14.95;66.54;100483.63;5082100;28;20028;-72
2022/11/04 07:07:19;;;;;;;58.03;26.35;;;;;;;15.41;65.24;100484.66;5082288;28;20115;-74
2022/11/04 07:09:44;;;;;;;55.20;27.95;;;;;;;15.79;63.71;100489.66;5086919;28;20449;-74
2022/11/04 07:12:10;;;;;;;49.83;26.92;;;;;;;15.96;62.59;100498.34;5084880;28;20032;-73
2022/11/04 07:14:35;;;;;;;55.50;27.55;;;;;;;16.09;62.31;100499.72;5086786;28;20032;-72
2022/11/04 07:17:01;;;;;;;52.53;27.67;;;;;;;16.08;61.81;100507.03;5081999;28;20040;-74
2022/11/04 07:19:26;;;;;;;56.13;28.75;;;;;;;16.09;62.27;100511.38;5098150;28;20404;-73
2022/11/04 07:21:52;;;;;;;56.70;28.33;;;;;;;16.01;62.31;100520.03;5097254;28;20086;-73
2022/11/04 07:24:17;;;;;;;67.75;28.98;;;;;;;16.23;61.79;100527.94;5088394;28;20032;-73
2022/11/04 07:26:43;;;;;;;65.15;27.60;;;;;;;16.04;62.35;100522.22;5089843;28;20119;-73
2022/11/04 07:29:10;;;;;;;60.92;29.10;;;;;;;16.06;62.70;100527.38;5088943;28;20028;-72
2022/11/04 07:31:36;;;;;;;57.38;29.50;;;;;;;15.97;62.62;100527.09;5087282;28;20024;-74
2022/11/04 07:34:02;;;;;;;57.85;28.75;;;;;;;15.86;63.12;100525.44;5085860;28;20105;-74
2022/11/04 07:36:27;;;;;;;55.28;29.08;;;;;;;15.70;64.12;100538.09;5088661;28;20044;-72
2022/11/04 07:38:53;;;;;;;58.72;28.83;;;;;;;15.99;63.55;100535.75;5086797;28;20423;-73
2022/11/04 07:41:19;;;;;;;57.35;28.05;;;;;;;16.37;62.20;100540.69;5087702;28;20078;-73
2022/11/04 07:43:51;;;;;;;64.15;29.67;;;;;;;16.50;61.86;100551.03;5088088;28;20055;-74
2022/11/04 07:46:18;;;;;;;62.28;32.67;;;;;;;16.30;62.16;100556.41;5088452;28;20035;-73
2022/11/04 07:48:43;;;;;;;60.35;29.40;;;;;;;15.98;63.19;100553.09;5097180;28;20123;-75
2022/11/04 07:51:15;;;;;;;64.88;29.85;;;;;;;16.28;62.99;100560.47;5092079;28;20032;-73
2022/11/04 07:53:40;;;;;;;63.53;31.95;;;;;;;16.05;63.29;100560.97;5088745;28;20114;-72
2022/11/04 07:56:10;;;;;;;64.40;31.30;;;;;;;16.18;63.17;100560.44;5087126;28;20675;-72
2022/11/04 07:58:36;;;;;;;63.60;31.55;;;;;;;15.08;66.91;100567.03;5086086;28;20028;-73
2022/11/04 08:01:05;;;;;;;61.80;32.53;;;;;;;15.77;64.52;100562.25;5086146;28;20043;-74
2022/11/04 08:03:32;;;;;;;63.08;30.20;;;;;;;16.15;63.91;100571.84;5087068;28;20449;-73
2022/11/04 08:06:00;;;;;;;63.88;30.92;;;;;;;16.03;63.99;100574.81;5088376;28;20052;-74
2022/11/04 08:08:26;;;;;;;72.05;33.60;;;;;;;15.96;64.95;100582.34;5086880;28;20434;-74
2022/11/04 08:10:57;;;;;;;63.35;32.63;;;;;;;15.55;66.19;100586.81;5085117;28;20055;-74
2022/11/04 08:13:23;;;;;;;;;;;;;;;15.60;66.41;100586.03;5088660;28;20064;-73
2022/11/04 08:15:48;;;;;;;66.18;32.90;;;;;;;15.62;65.75;100589.28;5087135;28;19962;-74
2022/11/04 08:18:14;;;;;;;51.67;30.27;;;;;;;15.62;66.45;100583.88;5093398;28;20036;-74
2022/11/04 08:20:39;;;;;;;65.47;34.35;;;;;;;15.28;66.83;100594.22;5085921;28;20085;-72
2022/11/04 08:23:05;;;;;;;68.63;36.00;;;;;;;14.96;67.96;100602.41;5085169;28;20032;-73
2022/11/04 08:25:30;;;;;;;58.75;33.22;;;;;;;15.54;66.67;100600.63;5081508;28;20032;-72
2022/11/04 08:27:56;;;;;;;72.10;36.75;;;;;;;14.75;68.34;100599.78;5083398;28;20127;-73
2022/11/04 08:30:21;;;;;;;73.82;36.80;;;;;;;15.10;67.52;100604.66;5081557;28;20055;-74
2022/11/04 08:32:46;;;;;;;66.78;35.97;;;;;;;15.84;65.99;100601.56;5090713;28;20108;-73
2022/11/04 08:35:12;;;;;;;66.40;37.53;;;;;;;15.21;67.62;100604.47;5088400;28;20064;-74
2022/11/04 08:37:37;;;;;;;62.30;38.38;;;;;;;15.01;67.44;100600.81;5084071;28;20032;-73
2022/11/04 08:40:03;;;;;;;70.70;39.17;;;;;;;14.70;68.31;100607.88;5082281;28;20641;-72
2022/11/04 08:42:28;;;;;;;66.13;38.75;;;;;;;14.62;69.56;100608.34;5083671;28;20047;-73
2022/11/04 08:44:54;;;;;;;69.57;41.13;;;;;;;14.91;68.90;100612.38;5081933;28;20455;-73
2022/11/04 08:47:19;;;;;;;70.35;39.67;;;;;;;15.41;66.33;100612.69;5081772;28;20103;-73
2022/11/04 08:49:45;;;;;;;67.43;37.03;;;;;;;14.64;69.19;100623.22;5084772;28;20066;-72
2022/11/04 08:52:10;;;;;;;71.18;41.88;;;;;;;14.90;68.92;100625.09;5081434;28;20499;-73
2022/11/04 08:54:35;;;;;;;68.53;41.30;;;;;;;15.08;68.56;100623.03;5082989;28;20397;-72
2022/11/04 08:57:01;;;;;;;72.40;43.92;;;;;;;15.92;66.22;100619.19;5082983;28;20052;-73
2022/11/04 08:59:27;;;;;;;74.30;41.45;;;;;;;15.38;66.42;100625.97;5083476;28;20044;-73
2022/11/04 09:01:52;;;;;;;74.75;41.58;;;;;;;15.53;66.83;100635.00;5080051;28;20029;-72
2022/11/04 09:04:18;;;;;;;70.20;41.50;;;;;;;15.96;65.85;100633.06;5082639;28;20032;-74
2022/11/04 09:06:45;;;;;;;72.93;41.42;;;;;;;16.30;63.92;100632.34;5082763;28;20488;-72
2022/11/04 09:09:13;;;;;;;65.15;38.58;;;;;;;14.99;67.17;100638.97;5089843;28;20044;-73
2022/11/04 09:11:42;;;;;;;66.72;41.03;;;;;;;15.55;67.42;100632.84;5093091;28;20048;-72
2022/11/04 09:14:08;;;;;;;67.72;39.45;;;;;;;15.73;66.07;100645.97;5081280;28;20063;-73
2022/11/04 09:16:34;;;;;;;72.32;42.20;;;;;;;15.99;65.94;100641.47;5078250;28;20040;-73
2022/11/04 09:19:01;;;;;;;66.30;40.38;;;;;;;16.55;63.81;100648.69;5092005;28;20032;-73
2022/11/04 09:21:27;;;;;;;65.68;40.28;;;;;;;15.91;65.60;100658.22;5093296;28;20050;-74
2022/11/04 09:23:53;;;;;;;60.95;37.15;;;;;;;15.59;66.21;100665.66;5093332;28;20501;-74
2022/11/04 09:26:19;;;;;;;66.03;38.03;;;;;;;15.90;65.92;100670.13;5093821;28;20462;-74
2022/11/04 09:28:45;;;;;;;65.00;38.33;;;;;;;16.39;64.70;100662.47;5093368;28;20127;-73
2022/11/04 09:31:16;;;;;;;65.43;36.80;;;;;;;15.81;65.36;100656.28;5093120;28;20047;-73
2022/11/04 09:33:42;;;;;;;71.88;39.92;;;;;;;16.24;64.49;100660.53;5092211;28;20050;-72
2022/11/04 09:36:09;;;;;;;73.20;40.95;;;;;;;15.99;65.28;100656.91;5093092;28;20036;-73
2022/11/04 09:38:36;;;;;;;65.75;35.95;;;;;;;16.22;64.12;100651.00;5093306;28;20023;-73
2022/11/04 09:41:23;;;;;;;54.10;35.35;;;;;;;16.13;64.85;100658.03;5093491;28;20035;-73
2022/11/04 09:44:21;;;;;;;57.75;35.85;;;;;;;16.43;63.54;100663.56;5093171;28;20062;-74
2022/11/04 09:46:49;;;;;;;51.83;33.58;;;;;;;16.78;62.58;100681.84;5090009;28;20048;-72
2022/11/04 09:49:17;;;;;;;63.50;34.10;;;;;;;16.45;62.49;100688.53;5092380;28;20519;-72
2022/11/04 09:51:46;;;;;;;65.32;35.22;;;;;;;16.97;61.76;100693.78;5072695;28;20040;-74
2022/11/04 09:54:33;;;;;;;55.33;33.88;;;;;;;17.00;61.52;100690.53;5075868;28;20546;-72
2022/11/04 09:57:00;;;;;;;52.53;33.63;;;;;;;17.19;61.24;100703.31;5088917;28;20040;-72
2022/11/04 09:59:29;;;;;;;57.28;34.00;;;;;;;17.49;60.35;100697.06;5073008;28;20040;-73
2022/11/04 10:02:10;;;;;;;55.08;33.65;;;;;;;17.45;60.94;100698.69;5072468;28;20574;-73
2022/11/04 10:04:54;;;;;;;;;;;;;;;16.99;63.13;100708.72;5072722;28;20070;-72
2022/11/04 10:07:38;;;;;;;57.67;33.58;;;;;;;17.52;61.86;100705.47;5072113;28;19916;-74
2022/11/04 10:10:06;;;;;;;58.38;35.10;;;;;;;17.22;61.80;100700.03;5071790;28;20066;-73
2022/11/04 10:13:02;;;;;;;57.55;35.60;;;;;;;17.53;61.62;100696.22;5074565;28;20040;-74
2022/11/04 10:15:46;;;;;;;58.53;35.85;;;;;;;17.61;61.72;100705.72;5072196;28;20043;-72
2022/11/04 10:18:43;;;;;;;62.03;34.92;;;;;;;17.37;62.29;100707.38;5072094;28;20040;-72
2022/11/04 10:21:29;;;;;;;54.25;33.15;;;;;;;16.63;64.74;100710.56;5071791;28;20040;-72
2022/11/04 10:24:31;;;;;;;59.40;35.53;;;;;;;17.01;63.18;100711.97;5071821;28;20124;-74
2022/11/04 10:27:02;;;;;;;53.80;31.77;;;;;;;17.45;62.37;100718.47;5071914;28;20081;-73
2022/11/04 10:29:39;;;;;;;57.00;34.45;;;;;;;17.05;62.62;100721.22;5071661;28;20028;-73
2022/11/04 10:32:13;;;;;;;53.40;31.77;;;;;;;17.64;61.89;100718.78;5072371;28;20032;-73
2022/11/04 10:34:49;;;;;;;46.00;30.42;;;;;;;17.85;60.82;100724.97;5071794;28;20519;-73
2022/11/04 10:37:15;;;;;;;56.67;32.55;;;;;;;18.38;59.60;100724.25;5071717;28;20117;-73
2022/11/04 10:39:44;;;;;;;56.63;30.52;;;;;;;17.52;62.24;100740.81;5071722;28;20037;-74
2022/11/04 10:42:13;;;;;;;47.42;31.08;;;;;;;18.04;60.40;100734.97;5071674;28;20098;-72
2022/11/04 10:44:39;;;;;;;47.83;30.65;;;;;;;18.29;60.73;100734.91;5071282;28;20552;-73
2022/11/04 10:47:19;;;;;;;47.88;32.70;;;;;;;18.89;59.31;100733.78;5072182;28;20021;-73
2022/11/04 10:50:28;;;;;;;55.65;31.02;;;;;;;18.73;60.54;100745.84;5075641;28;20039;-72
2022/11/04 10:53:08;;;;;;;47.72;28.75;;;;;;;19.04;59.29;100751.94;5009308;28;20169;-74
2022/11/04 10:55:55;;;;;;;44.40;27.90;;;;;;;18.12;59.81;100756.16;5009312;28;20037;-73
2022/11/04 10:58:28;;;;;;;42.08;27.20;;;;;;;17.85;61.64;100761.13;5009009;28;20598;-71
2022/11/04 11:00:53;;;;;;;43.45;25.55;;;;;;;17.02;63.46;100759.75;5009166;28;20177;-73
2022/11/04 11:03:33;;;;;;;37.60;24.98;;;;;;;17.78;62.25;100760.63;5009188;28;20037;-74
2022/11/04 11:06:32;;;;;;;35.50;23.73;;;;;;;17.92;61.55;100758.13;5009192;28;20034;-72
2022/11/04 11:09:11;;;;;;;33.25;23.17;;;;;;;18.00;60.99;100758.41;4950413;28;20086;-72
2022/11/04 11:11:39;;;;;;;34.67;23.02;;;;;;;17.61;63.83;100754.63;4931329;29;20043;-76
2022/11/04 11:14:15;;;;;;;31.88;21.35;;;;;;;17.89;61.24;100759.50;4935007;29;20094;-74
2022/11/04 11:16:40;;;;;;;32.72;19.98;;;;;;;18.11;62.14;100748.28;4950362;29;20044;-74
2022/11/04 11:19:14;;;;;;;35.13;21.75;;;;;;;17.76;62.18;100760.06;4949937;29;20191;-72
2022/11/04 11:21:46;;;;;;;26.90;18.85;;;;;;;17.19;61.69;100770.38;4948123;29;20059;-73
2022/11/04 11:24:15;;;;;;;30.15;20.15;;;;;;;17.08;63.99;100772.25;4947275;28;20100;-72
2022/11/04 11:26:47;;;;;;;36.35;21.13;;;;;;;17.92;61.09;100779.88;4949867;29;20019;-73
2022/11/04 11:29:20;;;;;;;31.70;17.42;;;;;;;18.26;59.39;100789.84;4996119;28;20122;-73
2022/11/04 11:31:46;;;;;;;36.00;18.83;;;;;;;18.53;57.85;100783.25;5008656;28;20045;-73
2022/11/04 11:34:31;;;;;;;25.08;16.50;;;;;;;17.59;62.68;100791.34;5008752;28;20196;-71
2022/11/04 11:37:01;;;;;;;26.67;17.73;;;;;;;18.39;59.29;100792.00;5008795;28;20131;-71
2022/11/04 11:39:29;;;;;;;24.42;16.35;;;;;;;18.40;60.51;100784.63;5008702;28;20042;-72
2022/11/04 11:41:59;;;;;;;23.35;16.58;;;;;;;17.59;62.32;100799.50;5008742;28;20533;-71
2022/11/04 11:44:31;;;;;;;26.25;17.70;;;;;;;18.16;60.12;100779.00;5037242;28;20044;-71
2022/11/04 11:47:05;;;;;;;27.20;16.88;;;;;;;17.40;60.91;100782.88;5071236;28;20052;-71
2022/11/04 11:49:36;;;;;;;25.63;15.98;;;;;;;18.17;59.25;100790.69;5073010;28;20044;-73
2022/11/04 11:52:35;;;;;;;25.38;15.65;;;;;;;18.67;58.07;100795.97;5091150;28;20114;-73
2022/11/04 11:55:27;;;;;;;23.02;14.52;;;;;;;19.27;56.89;100806.53;5089928;28;20589;-72
2022/11/04 11:58:16;;;;;;;31.23;15.73;;;;;;;19.53;56.80;100811.81;5095092;28;20066;-77
2022/11/04 12:00:58;;;;;;;19.50;14.30;;;;;;;18.79;57.72;100803.84;5089382;28;20028;-74